createdAt,value
2018-12-07T00:00:31.515Z,8.74
2018-12-07T00:06:26.525Z,5.86
2018-12-07T00:12:21.494Z,5.03
2018-12-07T00:18:16.507Z,7.07
2018-12-07T00:24:11.537Z,7.84
2018-12-07T00:30:06.516Z,9.13
2018-12-07T00:36:01.538Z,7.79
2018-12-07T00:41:56.502Z,6.64
2018-12-07T00:47:51.502Z,7.09
2018-12-07T00:53:46.503Z,8.6
2018-12-07T00:59:41.513Z,6.61
2018-12-07T01:05:36.554Z,6.61
2018-12-07T01:11:31.516Z,4.2
2018-12-07T01:17:26.503Z,5.67
2018-12-07T01:23:21.524Z,6.12
2018-12-07T01:29:16.524Z,5.59
2018-12-07T01:35:11.542Z,6.38
2018-12-07T01:41:06.520Z,7.22
2018-12-07T01:47:01.579Z,5.7
2018-12-07T01:52:56.521Z,8.36
2018-12-07T01:58:51.557Z,6.36
2018-12-07T02:04:46.534Z,5.53
2018-12-07T02:10:41.539Z,4.46
2018-12-07T02:16:36.554Z,4.73
2018-12-07T02:22:31.531Z,5.63
2018-12-07T02:28:26.516Z,5.92
2018-12-07T02:34:21.526Z,5.84
2018-12-07T02:40:16.529Z,4.27
2018-12-07T02:46:11.557Z,5.89
2018-12-07T02:52:06.540Z,4.93
2018-12-07T02:58:01.565Z,6.53
2018-12-07T03:03:56.591Z,5.53
2018-12-07T03:09:51.578Z,4.75
2018-12-07T03:15:46.547Z,7.97
2018-12-07T03:21:41.531Z,7.03
2018-12-07T03:27:36.567Z,5.77
2018-12-07T03:33:31.557Z,11.2
2018-12-07T03:39:26.558Z,9.77
2018-12-07T03:45:21.613Z,6.87
2018-12-07T03:51:16.580Z,6.9
2018-12-07T03:57:11.562Z,8.1
2018-12-07T04:03:06.550Z,6.86
2018-12-07T04:09:01.573Z,6
2018-12-07T04:14:56.551Z,5.76
2018-12-07T04:20:51.578Z,5.36
2018-12-07T04:26:46.585Z,6.65
2018-12-07T04:32:41.566Z,6.13
2018-12-07T04:38:36.570Z,6.25
2018-12-07T04:44:31.585Z,6.33
2018-12-07T04:50:26.576Z,5.33
2018-12-07T04:56:21.575Z,5.27
2018-12-07T05:02:16.597Z,6.4
2018-12-07T05:08:11.614Z,5.84
2018-12-07T05:14:06.614Z,5.47
2018-12-07T05:20:01.579Z,7.32
2018-12-07T05:25:56.607Z,7.95
2018-12-07T05:31:51.634Z,4.55
2018-12-07T05:37:46.565Z,9.83
2018-12-07T05:43:41.643Z,11.63
2018-12-07T05:49:36.580Z,8.37
2018-12-07T05:55:31.639Z,14.55
2018-12-07T06:01:26.617Z,12.43
2018-12-07T06:07:21.570Z,11.46
2018-12-07T06:13:16.622Z,8.78
2018-12-07T06:19:11.591Z,7.13
2018-12-07T06:25:06.579Z,7.56
2018-12-07T06:31:01.590Z,7.19
2018-12-07T06:36:56.583Z,10.9
2018-12-07T06:42:51.598Z,11.55
2018-12-07T06:48:46.589Z,12.91
2018-12-07T06:54:41.597Z,13.66
2018-12-07T07:00:36.601Z,17.93
2018-12-07T07:06:31.621Z,14.13
2018-12-07T07:12:26.636Z,10.94
2018-12-07T07:18:21.611Z,14.87
2018-12-07T07:24:16.605Z,11.44
2018-12-07T07:30:11.595Z,12.54
2018-12-07T07:36:06.644Z,10.09
2018-12-07T07:42:01.613Z,10
2018-12-07T07:47:56.605Z,9
2018-12-07T07:53:51.659Z,10.33
2018-12-07T07:59:46.594Z,8.82
2018-12-07T08:05:41.593Z,12.85
2018-12-07T08:11:36.659Z,12.13
2018-12-07T08:17:31.631Z,23.23
2018-12-07T08:23:26.616Z,25.59
2018-12-07T08:29:21.678Z,24.3
2018-12-07T08:35:16.623Z,25.64
2018-12-07T08:41:11.669Z,23.26
2018-12-07T08:47:06.613Z,43.31
2018-12-07T08:53:01.616Z,55.76
2018-12-07T08:58:56.609Z,48.75
2018-12-07T09:04:51.631Z,56.55
2018-12-07T09:10:46.643Z,53.93
2018-12-07T09:16:41.656Z,56.98
2018-12-07T09:22:36.653Z,66.41
2018-12-07T09:28:31.614Z,67.21
2018-12-07T09:34:26.634Z,55.36
2018-12-07T09:40:21.623Z,52.33
2018-12-07T09:46:16.626Z,49.09
2018-12-07T09:52:11.637Z,44.53
2018-12-07T09:58:06.672Z,54.42
2018-12-07T10:04:01.662Z,48.96
2018-12-07T10:09:56.660Z,53.32
2018-12-07T10:15:51.658Z,48.76
2018-12-07T10:21:46.664Z,50.96
2018-12-07T10:27:41.648Z,61.72
2018-12-07T10:33:36.640Z,64.21
2018-12-07T10:39:31.641Z,57.57
2018-12-07T10:45:26.633Z,63.18
2018-12-07T10:51:21.649Z,58.35
2018-12-07T10:57:16.668Z,58.77
2018-12-07T11:03:11.661Z,60.39
2018-12-07T11:09:06.661Z,58.55
2018-12-07T11:15:01.667Z,64.14
2018-12-07T11:20:56.676Z,77.3
2018-12-07T11:26:51.648Z,63.56
2018-12-07T11:32:46.664Z,66.37
2018-12-07T11:38:41.653Z,61.08
2018-12-07T11:44:36.776Z,61.06
2018-12-07T11:50:31.656Z,68.99
2018-12-07T11:56:26.648Z,57.77
2018-12-07T12:02:26.241Z,55.01
2018-12-07T12:08:16.718Z,57.33
2018-12-07T12:14:11.699Z,59.89
2018-12-07T12:20:06.697Z,63.14
2018-12-07T12:26:01.681Z,73.26
2018-12-07T12:31:56.675Z,66.56
2018-12-07T12:37:51.662Z,63.07
2018-12-07T12:43:46.685Z,65.72
2018-12-07T12:49:41.717Z,69.8
2018-12-07T12:55:36.771Z,61.97
2018-12-07T13:01:31.726Z,45.72
2018-12-07T13:07:26.671Z,50.67
2018-12-07T13:13:21.680Z,56.27
2018-12-07T13:19:16.703Z,41.73
2018-12-07T13:25:11.684Z,40.11
2018-12-07T13:31:06.716Z,43.39
2018-12-07T13:37:01.689Z,39.57
2018-12-07T13:42:56.722Z,43.93
2018-12-07T13:48:51.769Z,44.7
2018-12-07T13:54:46.718Z,49.64
2018-12-07T14:00:41.688Z,50.19
2018-12-07T14:06:36.684Z,60.54
2018-12-07T14:12:31.949Z,60.62
2018-12-07T14:18:26.722Z,55.93
2018-12-07T14:24:21.769Z,65.64
2018-12-07T14:30:16.759Z,68.64
2018-12-07T14:36:11.833Z,68.67
2018-12-07T14:42:06.715Z,57.29
2018-12-07T14:48:01.838Z,56.79
2018-12-07T14:53:56.730Z,47.84
2018-12-07T14:59:51.761Z,48.78
2018-12-07T15:05:46.763Z,48.96
2018-12-07T15:11:43.231Z,52.78
2018-12-07T15:17:37.530Z,47.94
2018-12-07T15:23:31.778Z,64.56
2018-12-07T15:29:26.910Z,70.16
2018-12-07T15:35:21.913Z,76.93
2018-12-07T15:41:16.850Z,63.36
2018-12-07T15:47:11.732Z,107.81
2018-12-07T15:53:06.694Z,60.8
2018-12-07T15:59:01.757Z,58.04
2018-12-07T16:04:56.709Z,53.68
2018-12-07T16:10:53.106Z,51.85
2018-12-07T16:16:46.771Z,50.95
2018-12-07T16:22:41.862Z,68.48
2018-12-07T16:28:36.755Z,62.08
2018-12-07T16:34:31.825Z,58.62
2018-12-07T16:40:26.934Z,58.53
2018-12-07T16:46:21.925Z,75.91
2018-12-07T16:52:16.738Z,63.51
2018-12-07T16:58:11.920Z,85.05
2018-12-07T17:04:06.821Z,75.89
2018-12-07T17:10:02.093Z,64.77
2018-12-07T17:15:56.763Z,69.15
2018-12-07T17:21:51.805Z,63
2018-12-07T17:27:46.718Z,49.63
2018-12-07T17:33:41.819Z,46.56
2018-12-07T17:39:36.723Z,63.23
2018-12-07T17:45:31.978Z,56.7
2018-12-07T17:51:26.981Z,73.58
2018-12-07T17:57:21.977Z,79.07
2018-12-07T18:03:16.727Z,85.92
2018-12-07T18:09:12.020Z,82.73
2018-12-07T18:15:06.813Z,82.23
2018-12-07T18:21:02.042Z,96.73
2018-12-07T18:26:57.003Z,88.49
2018-12-07T18:32:51.771Z,94.12
2018-12-07T18:38:46.925Z,97.96
2018-12-07T18:44:41.795Z,80.58
2018-12-07T18:50:36.892Z,72.64
2018-12-07T18:56:31.983Z,104.43
2018-12-07T19:02:26.806Z,82.35
2018-12-07T19:08:21.866Z,95.56
2018-12-07T19:14:17.139Z,67.93
2018-12-07T19:20:12.007Z,74.52
2018-12-07T19:26:06.786Z,80.43
2018-12-07T19:32:01.800Z,94.64
2018-12-07T19:37:56.957Z,87.61
2018-12-07T19:43:52.024Z,86.44
2018-12-07T19:49:46.861Z,78.53
2018-12-07T19:55:41.824Z,86.83
2018-12-07T20:01:36.735Z,77.46
2018-12-07T20:07:32.114Z,79.13
2018-12-07T20:13:27.036Z,89.55
2018-12-07T20:19:21.732Z,97.55
2018-12-07T20:25:16.889Z,97.16
2018-12-07T20:31:11.793Z,89.17
2018-12-07T20:37:06.824Z,87.17
2018-12-07T20:43:01.768Z,74.47
2018-12-07T20:48:56.787Z,73.51
2018-12-07T20:54:51.804Z,71.47
2018-12-07T21:00:46.744Z,72.52
2018-12-07T21:06:41.889Z,71.32
2018-12-07T21:12:36.993Z,59.38
2018-12-07T21:18:31.882Z,69.15
2018-12-07T21:24:26.891Z,63.99
2018-12-07T21:30:21.748Z,69.47
2018-12-07T21:36:16.818Z,61.47
2018-12-07T21:42:11.746Z,55.42
2018-12-07T21:48:06.863Z,51.28
2018-12-07T21:54:02.178Z,64.87
2018-12-07T21:59:56.823Z,65.27
2018-12-07T22:05:51.888Z,55.45
2018-12-07T22:11:47.058Z,46.28
2018-12-07T22:17:41.760Z,50.01
2018-12-07T22:23:36.766Z,45.83
2018-12-07T22:29:31.827Z,59.91
2018-12-07T22:35:27.015Z,59.25
2018-12-07T22:41:21.766Z,63.58
2018-12-07T22:47:17.148Z,52.76
2018-12-07T22:53:11.752Z,50.91
2018-12-07T22:59:06.740Z,59.64
2018-12-07T23:05:01.800Z,51.25
2018-12-07T23:10:56.777Z,49.7
2018-12-07T23:16:51.750Z,53.62
2018-12-07T23:22:49.001Z,50.52
2018-12-07T23:28:41.781Z,47.22
2018-12-07T23:34:36.821Z,42.7
2018-12-07T23:40:31.777Z,46.2
2018-12-07T23:46:26.768Z,33.5
2018-12-07T23:52:21.762Z,34.2
2018-12-07T23:58:16.791Z,30.09
